createdAt,value
2023-05-23T00:02:29.205Z,99837.44
2023-05-23T00:07:32.610Z,99837.00
2023-05-23T00:12:34.501Z,99839.22
2023-05-23T00:17:39.730Z,99838.28
2023-05-23T00:22:44.414Z,99838.34
2023-05-23T00:27:46.272Z,99850.56
2023-05-23T00:32:48.468Z,99852.25
2023-05-23T00:37:52.015Z,99852.59
2023-05-23T00:42:54.027Z,99855.63
2023-05-23T00:47:56.285Z,99857.59
2023-05-23T00:53:00.725Z,99850.63
2023-05-23T00:58:02.968Z,99856.75
2023-05-23T01:03:05.340Z,99864.69
2023-05-23T01:08:08.231Z,99877.03
2023-05-23T01:14:13.244Z,99874.03
2023-05-23T01:19:28.255Z,99881.78
2023-05-23T01:24:36.593Z,99874.34
2023-05-23T01:29:43.770Z,99880.44
2023-05-23T01:34:46.785Z,99875.22
2023-05-23T01:39:49.156Z,99882.28
2023-05-23T01:44:52.467Z,99880.16
2023-05-23T01:49:55.618Z,99884.53
2023-05-23T01:54:59.429Z,99882.53
2023-05-23T02:00:01.548Z,99896.84
2023-05-23T02:05:03.481Z,99886.94
2023-05-23T02:10:09.134Z,99884.38
2023-05-23T02:15:11.386Z,99893.72
2023-05-23T02:20:14.559Z,99890.09
2023-05-23T02:25:16.471Z,99889.31
2023-05-23T02:30:18.414Z,99901.53
2023-05-23T02:35:21.105Z,99906.66
2023-05-23T02:40:23.000Z,99920.09
2023-05-23T02:45:24.936Z,99923.91
2023-05-23T02:50:26.957Z,99927.16
2023-05-23T02:55:29.047Z,99939.41
2023-05-23T03:00:30.947Z,99940.47
2023-05-23T03:05:33.069Z,99942.81
2023-05-23T03:10:35.137Z,99934.59
2023-05-23T03:15:37.163Z,99952.47
2023-05-23T03:20:42.566Z,99948.75
2023-05-23T03:25:44.620Z,99952.94
2023-05-23T03:30:46.644Z,99951.97
2023-05-23T03:35:48.762Z,99954.53
2023-05-23T03:40:50.881Z,99948.09
2023-05-23T03:45:53.102Z,99954.84
2023-05-23T03:50:55.537Z,99952.66
2023-05-23T03:55:58.016Z,99951.97
2023-05-23T04:01:02.272Z,99953.84
2023-05-23T04:06:05.691Z,99967.47
2023-05-23T04:11:08.909Z,99964.41
2023-05-23T04:16:13.138Z,99970.38
2023-05-23T04:21:16.522Z,99964.66
2023-05-23T04:26:27.673Z,99973.44
2023-05-23T04:31:30.221Z,99979.34
2023-05-23T04:36:38.289Z,99989.06
2023-05-23T04:41:40.660Z,99994.56
2023-05-23T04:47:15.950Z,100001.91
2023-05-23T04:52:30.930Z,100014.03
2023-05-23T04:57:33.616Z,100009.53
2023-05-23T05:02:37.405Z,99994.59
2023-05-23T05:07:40.529Z,100004.50
2023-05-23T05:12:45.602Z,100000.53
2023-05-23T05:17:49.694Z,100005.34
2023-05-23T05:22:58.143Z,100008.78
2023-05-23T05:28:07.807Z,100013.16
2023-05-23T05:33:15.253Z,100014.81
2023-05-23T05:38:17.968Z,100031.88
2023-05-23T05:43:21.010Z,100035.22
2023-05-23T05:48:30.445Z,100035.50
2023-05-23T05:53:36.928Z,100044.97
2023-05-23T05:58:55.612Z,100042.25
2023-05-23T06:04:00.252Z,100045.19
2023-05-23T06:09:10.807Z,100045.03
2023-05-23T06:14:12.554Z,100042.50
2023-05-23T06:19:18.448Z,100047.47
2023-05-23T06:24:22.698Z,100047.78
2023-05-23T06:29:43.470Z,100051.22
2023-05-23T06:34:47.766Z,100053.94
2023-05-23T06:39:49.672Z,100057.22
2023-05-23T06:44:53.859Z,100060.81
2023-05-23T06:49:57.868Z,100058.16
2023-05-23T06:55:01.787Z,100055.47
2023-05-23T07:00:05.973Z,100057.97
2023-05-23T07:05:17.681Z,100067.94
2023-05-23T07:10:26.476Z,100069.09
2023-05-23T07:15:34.024Z,100063.28
2023-05-23T07:20:54.710Z,100062.03
2023-05-23T07:26:02.636Z,100062.97
2023-05-23T07:31:31.578Z,100066.19
2023-05-23T07:36:38.013Z,100064.53
2023-05-23T07:41:43.090Z,100050.03
2023-05-23T07:46:45.121Z,100057.69
2023-05-23T07:51:47.267Z,100067.00
2023-05-23T07:56:49.291Z,100053.34
2023-05-23T08:01:53.207Z,100051.72
2023-05-23T08:07:05.067Z,100058.50
2023-05-23T08:12:27.973Z,100057.09
2023-05-23T08:17:40.968Z,100074.44
2023-05-23T08:22:43.335Z,100088.09
2023-05-23T08:27:45.780Z,100104.84
2023-05-23T08:33:07.308Z,100108.19
2023-05-23T08:38:11.544Z,100099.97
2023-05-23T08:43:20.467Z,100096.13
2023-05-23T08:48:24.065Z,100099.78
2023-05-23T08:53:27.526Z,100088.75
2023-05-23T08:58:39.033Z,100096.06
2023-05-23T09:03:44.547Z,100086.09
2023-05-23T09:08:54.821Z,100103.75
2023-05-23T09:13:59.303Z,100116.94
2023-05-23T09:19:11.871Z,100125.91
2023-05-23T09:24:14.260Z,100128.75
2023-05-23T09:29:21.647Z,100122.81
2023-05-23T09:34:23.645Z,100115.44
2023-05-23T09:39:25.714Z,100127.94
2023-05-23T09:44:28.161Z,100126.09
2023-05-23T09:49:30.051Z,100134.56
2023-05-23T09:54:32.014Z,100131.13
2023-05-23T09:59:38.578Z,100126.97
2023-05-23T10:04:41.823Z,100130.19
2023-05-23T10:09:57.433Z,100131.94
2023-05-23T10:15:06.036Z,100132.59
2023-05-23T10:20:12.642Z,100139.47
2023-05-23T10:25:15.532Z,100146.78
2023-05-23T10:30:17.803Z,100155.63
2023-05-23T10:35:41.717Z,100168.75
2023-05-23T10:40:53.999Z,100176.88
2023-05-23T10:45:55.965Z,100177.44
2023-05-23T10:51:09.150Z,100163.28
2023-05-23T10:56:20.016Z,100160.06
2023-05-23T11:01:22.213Z,100168.06
2023-05-23T11:06:44.988Z,100171.41
2023-05-23T11:12:05.861Z,100171.97
2023-05-23T11:17:13.775Z,100184.13
2023-05-23T11:22:16.015Z,100176.66
2023-05-23T11:27:40.915Z,100163.25
2023-05-23T11:32:54.324Z,100161.56
2023-05-23T11:37:57.799Z,100176.84
2023-05-23T11:43:00.875Z,100188.13
2023-05-23T11:48:10.447Z,100197.16
2023-05-23T11:53:13.558Z,100204.31
2023-05-23T11:58:15.532Z,100198.50
2023-05-23T12:03:17.579Z,100195.97
2023-05-23T12:08:19.878Z,100191.03
2023-05-23T12:13:25.922Z,100188.91
2023-05-23T12:18:32.513Z,100191.38
2023-05-23T12:23:35.894Z,100190.56
2023-05-23T12:28:43.645Z,100194.09
2023-05-23T12:33:49.046Z,100192.75
2023-05-23T12:38:52.211Z,100201.50
2023-05-23T12:43:55.997Z,100213.25
2023-05-23T12:48:57.912Z,100209.16
2023-05-23T12:54:00.141Z,100227.81
2023-05-23T12:59:03.469Z,100228.75
2023-05-23T13:04:07.192Z,100220.88
2023-05-23T13:09:09.812Z,100232.03
2023-05-23T13:14:13.766Z,100243.84
2023-05-23T13:19:15.682Z,100246.72
2023-05-23T13:24:18.059Z,100243.03
2023-05-23T13:29:20.104Z,100247.50
2023-05-23T13:34:21.991Z,100226.69
2023-05-23T13:39:24.041Z,100227.59
2023-05-23T13:44:26.309Z,100245.94
2023-05-23T13:49:28.186Z,100247.34
2023-05-23T13:54:30.031Z,100244.63
2023-05-23T13:59:31.902Z,100246.97
2023-05-23T14:04:33.876Z,100233.38
2023-05-23T14:09:35.810Z,100234.78
2023-05-23T14:14:37.656Z,100225.53
2023-05-23T14:19:39.662Z,100233.59
2023-05-23T14:24:41.648Z,100242.03
2023-05-23T14:29:46.512Z,100235.56
2023-05-23T14:34:48.466Z,100251.59
2023-05-23T14:39:50.400Z,100252.19
2023-05-23T14:44:54.075Z,100243.06
2023-05-23T14:49:55.996Z,100244.25
2023-05-23T14:54:58.026Z,100238.66
2023-05-23T14:59:59.864Z,100236.41
2023-05-23T15:05:01.972Z,100238.38
2023-05-23T15:10:06.916Z,100243.69
2023-05-23T15:15:09.896Z,100244.81
2023-05-23T15:20:12.233Z,100240.34
2023-05-23T15:25:14.113Z,100242.88
2023-05-23T15:30:16.565Z,100236.69
2023-05-23T15:35:19.903Z,100254.59
2023-05-23T15:40:23.122Z,100245.34
2023-05-23T15:45:25.118Z,100247.34
2023-05-23T15:50:28.069Z,100256.13
2023-05-23T15:55:32.158Z,100251.25
2023-05-23T16:00:34.211Z,100257.94
2023-05-23T16:05:36.553Z,100266.31
2023-05-23T16:10:40.517Z,100254.78
2023-05-23T16:15:43.751Z,100257.25
2023-05-23T16:20:46.078Z,100259.25
2023-05-23T16:25:48.521Z,100252.13
2023-05-23T16:30:51.460Z,100250.22
2023-05-23T16:35:55.574Z,100251.22
2023-05-23T16:40:57.536Z,100258.34
2023-05-23T16:45:59.466Z,100257.75
2023-05-23T16:51:02.371Z,100259.19
2023-05-23T16:56:06.254Z,100246.56
2023-05-23T17:01:09.250Z,100247.25
2023-05-23T17:06:11.288Z,100244.31
2023-05-23T17:11:14.255Z,100245.91
2023-05-23T17:16:20.425Z,100231.84
2023-05-23T17:21:23.668Z,100243.69
2023-05-23T17:26:27.503Z,100239.53
2023-05-23T17:31:30.808Z,100239.84
2023-05-23T17:36:34.262Z,100244.94
2023-05-23T17:41:38.176Z,100249.78
2023-05-23T17:46:41.521Z,100246.94
2023-05-23T17:51:43.498Z,100254.63
2023-05-23T17:56:45.479Z,100254.97
2023-05-23T18:01:47.950Z,100262.59
2023-05-23T18:06:50.671Z,100257.81
2023-05-23T18:11:53.686Z,100266.81
2023-05-23T18:16:55.748Z,100265.88
2023-05-23T18:21:57.842Z,100264.91
2023-05-23T18:27:01.409Z,100271.88
2023-05-23T18:32:04.637Z,100278.13
2023-05-23T18:37:06.695Z,100273.19
2023-05-23T18:42:08.627Z,100280.00
2023-05-23T18:47:10.704Z,100281.19
2023-05-23T18:52:13.838Z,100285.94
2023-05-23T18:57:17.504Z,100285.69
2023-05-23T19:02:20.808Z,100299.16
2023-05-23T19:07:23.938Z,100306.50
2023-05-23T19:12:26.982Z,100301.97
2023-05-23T19:17:29.000Z,100310.25
2023-05-23T19:22:43.097Z,100320.63
2023-05-23T19:27:52.998Z,100321.94
2023-05-23T19:32:55.293Z,100331.88
2023-05-23T19:37:57.368Z,100343.41
2023-05-23T19:42:59.352Z,100348.34
2023-05-23T19:48:02.391Z,100354.44
2023-05-23T19:53:05.357Z,100359.81
2023-05-23T19:58:07.370Z,100361.78
2023-05-23T20:03:09.480Z,100371.50
2023-05-23T20:08:11.625Z,100376.13
2023-05-23T20:13:13.740Z,100384.00
2023-05-23T20:18:16.368Z,100386.59
2023-05-23T20:23:18.398Z,100402.19
2023-05-23T20:28:20.262Z,100396.56
2023-05-23T20:33:22.264Z,100400.06
2023-05-23T20:38:24.893Z,100407.78
2023-05-23T20:43:26.758Z,100396.72
2023-05-23T20:48:28.805Z,100406.22
2023-05-23T20:53:31.540Z,100410.88
2023-05-23T20:58:33.890Z,100423.16
2023-05-23T21:03:35.923Z,100424.00
2023-05-23T21:08:37.837Z,100422.78
2023-05-23T21:13:39.993Z,100428.38
2023-05-23T21:18:41.981Z,100432.13
2023-05-23T21:23:43.851Z,100438.25
2023-05-23T21:28:45.761Z,100440.16
2023-05-23T21:33:48.023Z,100444.53
2023-05-23T21:38:49.909Z,100444.03
2023-05-23T21:43:52.501Z,100447.91
2023-05-23T21:48:54.348Z,100449.63
2023-05-23T21:53:56.229Z,100462.97
2023-05-23T21:58:58.613Z,100457.91
2023-05-23T22:04:01.628Z,100455.22
2023-05-23T22:09:03.997Z,100463.91
2023-05-23T22:14:05.914Z,100469.06
2023-05-23T22:19:10.039Z,100471.94
2023-05-23T22:24:12.110Z,100459.44
2023-05-23T22:29:44.883Z,100455.13
2023-05-23T22:34:46.699Z,100457.06
2023-05-23T22:39:48.555Z,100466.47
2023-05-23T22:44:50.474Z,100468.88
2023-05-23T22:49:56.628Z,100472.16
2023-05-23T22:54:58.563Z,100471.84
2023-05-23T23:00:00.613Z,100476.22
2023-05-23T23:05:03.849Z,100474.34
2023-05-23T23:10:07.911Z,100474.28
2023-05-23T23:15:10.183Z,100469.69
2023-05-23T23:20:13.014Z,100468.75
2023-05-23T23:25:15.552Z,100473.47
2023-05-23T23:30:17.726Z,100475.81
2023-05-23T23:35:19.654Z,100475.22
2023-05-23T23:40:21.688Z,100480.13
2023-05-23T23:45:23.561Z,100472.53
2023-05-23T23:50:26.908Z,100478.88
2023-05-23T23:55:28.742Z,100485.91
